• Join FlightAware (Why Join?)
  • Login
  • US Flag 
Rudolph Flight #1: Arrived! 
11:31PM EST


 

Airport Tracker/Info


-or-


 

Live Flight TrackerFlight Track Log ✈ JBU673 ✈ 10-Apr-2013 ✈ KJFK - KLAX

Flight Track Log - Related Links

Times and Time Zones

All times are in EDT time to prevent confusion due to time zone crossing. See the JBU673 flight status page for this flight to view local times or setup timezone preferences in your user account.

Time Position Orientation Groundspeed Altitude Reporting Facility
EDT Latitude Longitude Course Direction KTS MPH feet Rate Location/Type
11:29AM 40.6380 -73.7730 27° Northeast 170 196 100  Level FlightAware
11:30AM 40.6570 -73.7530 39° Northeast 176 203 1,400 2,100 Climbing FlightAware
11:30AM 40.6590 -73.7410 78° East 188 216 1,700 1,020 Climbing FlightAware
11:30AM 40.6490 -73.7170 119° Southeast 218 251 2,000 840 Climbing FlightAware
11:30AM 40.6350 -73.7110 162° South 229 264 2,200 1,320 Climbing FlightAware
11:31AM 40.6120 -73.7180 193° South 244 281 2,800 2,100 Climbing FlightAware
11:31AM 40.5830 -73.7210 184° South 262 302 3,800 2,460 Climbing FlightAware
11:32AM 40.5460 -73.7250 185° South 267 307 5,100 2,700 Climbing FlightAware
11:32AM 40.5271 -73.7327 197° South 267 307 5,800 2,820 Climbing FlightAware ADS-B
11:32AM 40.5041 -73.7437 200° South 272 313 6,700 2,700 Climbing FlightAware ADS-B
11:32AM 40.4861 -73.7524 200° South 272 313 7,400 2,760 Climbing FlightAware ADS-B
11:33AM 40.4736 -73.7614 209° Southwest 269 310 7,900 2,400 Climbing FlightAware ADS-B
11:33AM 40.4668 -73.7708 226° Southwest 266 306 8,200 2,220 Climbing FlightAware ADS-B
11:33AM 40.4624 -73.7809 240° Southwest 262 302 8,500 2,460 Climbing FlightAware ADS-B
11:33AM 40.4540 -73.8053 246° West 265 305 9,200 2,400 Climbing FlightAware ADS-B
11:33AM 40.4461 -73.8285 246° West 266 306 9,800 2,040 Climbing FlightAware ADS-B
11:34AM 40.4286 -73.8778 245° Southwest 279 321 10,900 1,020 Climbing FlightAware ADS-B
11:35AM 40.4085 -73.9335 245° Southwest 328 377 11,000 240 Climbing FlightAware ADS-B
11:35AM 40.3863 -73.9938 244° Southwest 363 418 11,200 1,260 Climbing FlightAware ADS-B
11:36AM 40.3621 -74.0596 244° Southwest 366 421 12,400 2,160 Climbing FlightAware ADS-B
11:36AM 40.3361 -74.1304 244° Southwest 366 421 13,700 1,920 Climbing FlightAware ADS-B
11:37AM 40.3125 -74.1947 244° Southwest 371 427 14,600 1,200 Climbing FlightAware ADS-B
11:37AM 40.2898 -74.2570 244° Southwest 378 435 15,000 360 Climbing FlightAware ADS-B
11:38AM 40.2665 -74.3201 244° Southwest 378 435 15,000 660 Level FlightAware ADS-B
11:38AM 40.2434 -74.3829 244° Southwest 381 438 15,700 2,220 Climbing FlightAware ADS-B
11:39AM 40.2186 -74.4497 244° Southwest 362 417 17,400 2,760 Climbing FlightAware ADS-B
11:39AM 40.2082 -74.4779 244° Southwest 361 415 17,900 1,800 Climbing FlightAware ADS-B
11:39AM 40.2032 -74.4958 250° West 359 413 18,100 1,680 Climbing FlightAware ADS-B
11:39AM 40.2013 -74.5064 257° West 359 413 18,300 1,620 Climbing FlightAware ADS-B
11:40AM 40.1955 -74.5672 263° West 361 415 19,000 1,380 Climbing FlightAware ADS-B
11:40AM 40.1909 -74.6337 265° West 368 423 19,700 1,320 Climbing FlightAware ADS-B
11:41AM 40.1857 -74.7042 265° West 375 432 20,400 1,260 Climbing FlightAware ADS-B
11:41AM 40.1803 -74.7725 264° West 381 438 21,000 1,080 Climbing FlightAware ADS-B
11:42AM 40.1747 -74.8431 264° West 389 448 21,500 1,020 Climbing FlightAware ADS-B
11:42AM 40.1684 -74.9215 264° West 397 457 22,100 1,140 Climbing FlightAware ADS-B
11:43AM 40.1625 -74.9930 264° West 400 460 22,700 1,080 Climbing FlightAware ADS-B
11:43AM 40.1564 -75.0670 264° West 405 466 23,200 1,140 Climbing FlightAware ADS-B
11:44AM 40.1496 -75.1469 264° West 408 470 23,900 1,140 Climbing FlightAware ADS-B
11:44AM 40.1433 -75.2209 264° West 413 475 24,400 840 Climbing FlightAware ADS-B
11:45AM 40.1370 -75.2978 264° West 416 479 24,800 840 Climbing FlightAware ADS-B
11:45AM 40.1305 -75.3750 264° West 420 483 25,300 900 Climbing FlightAware ADS-B
11:46AM 40.1234 -75.4589 264° West 424 488 25,800 600 Climbing FlightAware ADS-B
11:47AM 40.1166 -75.5379 264° West 437 503 26,000 660 Climbing FlightAware ADS-B
11:47AM 40.1094 -75.6214 264° West 439 505 26,500 840 Climbing FlightAware ADS-B
11:47AM 40.1048 -75.6787 264° West 440 506 26,800 780 Climbing FlightAware ADS-B
11:48AM 40.1044 -75.7168 269° West 440 506 27,000 780 Climbing FlightAware ADS-B
11:48AM 40.1051 -75.7973 271° West 443 510 27,400 780 Climbing FlightAware ADS-B
11:49AM 40.1053 -75.8802 270° West 444 511 27,800 720 Climbing FlightAware ADS-B
11:49AM 40.1054 -75.9619 270° West 446 513 28,200 900 Climbing FlightAware ADS-B
11:50AM 40.1055 -76.0484 270° West 444 511 28,800 1,140 Climbing FlightAware ADS-B
11:50AM 40.1056 -76.1299 270° West 440 506 29,400 1,080 Climbing FlightAware ADS-B
11:51AM 40.1056 -76.2108 270° West 439 505 29,900 960 Climbing FlightAware ADS-B
11:51AM 40.1057 -76.2944 270° West 436 502 30,400 840 Climbing FlightAware ADS-B
11:52AM 40.1058 -76.3740 270° West 436 502 30,800 840 Climbing FlightAware ADS-B
11:52AM 40.1057 -76.4545 270° West 435 501 31,300 960 Climbing FlightAware ADS-B
11:53AM 40.1056 -76.5356 270° West 430 495 31,800 840 Climbing FlightAware ADS-B
11:53AM 40.1054 -76.6200 270° West 430 495 32,200 420 Climbing FlightAware ADS-B
11:54AM 40.1048 -76.7671 270° West 435 501 32,500 360 Climbing FlightAware ADS-B
11:55AM 40.1044 -76.8502 270° West 436 502 32,800 660 Climbing FlightAware ADS-B
11:55AM 40.1040 -76.9316 270° West 435 501 33,200 660 Climbing FlightAware ADS-B
11:56AM 40.1035 -77.0125 270° West 433 498 33,500 660 Climbing FlightAware ADS-B
11:56AM 40.1030 -77.0950 270° West 431 496 33,900 420 Climbing FlightAware ADS-B
11:57AM 40.1022 -77.1893 269° West 426 490 34,000 60 Climbing FlightAware ADS-B
11:58AM 40.1015 -77.2736 269° West 417 480 34,000  Level FlightAware ADS-B
11:58AM 40.1008 -77.3526 269° West 421 484 34,000  Level FlightAware ADS-B
11:59AM 40.1001 -77.4370 269° West 425 489 34,000  Level FlightAware ADS-B
11:59AM 40.0991 -77.5228 269° West 427 491 34,000  Level FlightAware ADS-B
12:00PM 40.0982 -77.6032 269° West 426 490 34,000  Level FlightAware ADS-B
12:00PM 40.0972 -77.6959 269° West 425 489 34,000  Level FlightAware ADS-B
12:01PM 40.0962 -77.7736 269° West 427 491 34,000  Level FlightAware ADS-B
12:02PM 40.0947 -77.8860 269° West 427 491 34,000  Level FlightAware ADS-B
12:02PM 40.0934 -77.9730 269° West 427 491 34,000  Level FlightAware ADS-B
12:03PM 40.0920 -78.0730 269° West 427 491 34,000  Level FlightAware
12:04PM 40.0900 -78.1820 269° West 427 491 34,000  Level FlightAware
12:04PM 40.0880 -78.2940 269° West 427 491 34,000  Level FlightAware
12:05PM 40.0860 -78.3890 268° West 426 490 34,000  Level FlightAware
12:06PM 40.0840 -78.5170 269° West 425 489 34,000  Level FlightAware
12:06PM 40.0820 -78.6210 269° West 422 486 34,000  Level FlightAware
12:07PM 40.0800 -78.7240 269° West 423 487 34,000  Level FlightAware
12:08PM 40.0770 -78.8390 268° West 424 488 34,000  Level FlightAware
12:08PM 40.0750 -78.9210 268° West 424 488 34,000  Level FlightAware
12:09PM 40.0720 -79.0550 268° West 425 489 34,000  Level FlightAware
12:10PM 40.0710 -79.1260 269° West 423 487 34,000  Level FlightAware
12:11PM 40.0670 -79.2600 268° West 428 493 34,000  Level FlightAware
12:11PM 40.0650 -79.3590 269° West 432 497 34,000  Level FlightAware
12:12PM 40.0620 -79.4760 268° West 433 498 34,000 60 Level FlightAware
12:13PM 40.0580 -79.5990 268° West 432 497 34,100  Climbing FlightAware
12:13PM 40.0550 -79.7020 268° West 431 496 34,000 -120 Descending FlightAware
12:14PM 40.0520 -79.8190 268° West 430 495 34,000  Level FlightAware
12:15PM 40.0480 -79.9270 267° West 430 495 34,000  Level FlightAware
12:15PM 40.0450 -80.0320 268° West 430 495 34,000  Level FlightAware
12:16PM 40.0410 -80.1450 267° West 431 496 34,000  Level FlightAware
12:17PM 40.0390 -80.2200 268° West 432 497 34,000  Level FlightAware
12:17PM 40.0340 -80.3290 267° West 432 497 34,000  Level FlightAware
12:18PM 40.0300 -80.4730 268° West 429 494 34,000  Level FlightAware
12:19PM 40.0260 -80.5780 267° West 428 493 34,000 60 Level FlightAware
12:20PM 40.0220 -80.6880 267° West 423 487 34,100  Climbing FlightAware
12:20PM 40.0160 -80.7950 266° West 423 487 34,000 -120 Descending FlightAware
12:21PM 39.9960 -80.9050 257° West 428 493 34,000  Level FlightAware
12:22PM 39.9780 -81.0070 257° West 433 498 34,000  Level FlightAware
12:22PM 39.9610 -81.1070 258° West 434 499 34,000 60 Level FlightAware
12:23PM 39.9420 -81.2190 258° West 433 498 34,100 60 Climbing FlightAware
12:24PM 39.9250 -81.3210 258° West 431 496 34,100 -120 Level FlightAware
12:25PM 39.9070 -81.4270 258° West 430 495 34,000 -120 Descending FlightAware
12:25PM 39.8880 -81.5380 257° West 431 496 34,000  Level FlightAware
12:26PM 39.8700 -81.6410 257° West 433 498 34,000  Level FlightAware
12:27PM 39.8510 -81.7520 257° West 434 499 34,000  Level FlightAware
12:27PM 39.8340 -81.8540 258° West 435 501 34,000  Level FlightAware
12:28PM 39.8140 -81.9590 256° West 436 502 34,000  Level FlightAware
12:29PM 39.7940 -82.0730 257° West 436 502 34,000 60 Level FlightAware
12:29PM 39.7770 -82.1760 258° West 435 501 34,100 60 Climbing FlightAware
12:30PM 39.7600 -82.2770 258° West 433 498 34,100 -120 Level FlightAware
12:31PM 39.7430 -82.3890 259° West 432 497 34,000 -120 Descending FlightAware
12:32PM 39.7280 -82.4920 259° West 431 496 34,000  Level FlightAware
12:32PM 39.7120 -82.6010 259° West 433 498 34,000  Level FlightAware
12:33PM 39.6960 -82.7080 259° West 434 499 34,000  Level FlightAware
12:34PM 39.6800 -82.8120 259° West 434 499 34,000  Level FlightAware
12:34PM 39.6630 -82.9180 258° West 437 503 34,000  Level FlightAware
12:35PM 39.6440 -83.0310 258° West 438 504 34,000  Level FlightAware
12:36PM 39.6250 -83.1460 258° West 438 504 34,000  Level FlightAware
12:36PM 39.6100 -83.2450 259° West 438 504 34,000  Level FlightAware
12:37PM 39.5930 -83.3560 259° West 438 504 34,000 60 Level FlightAware
12:38PM 39.5810 -83.4570 261° West 434 499 34,100  Climbing FlightAware
12:38PM 39.5730 -83.5480 264° West 433 498 34,000 -120 Descending FlightAware
12:39PM 39.5750 -83.6690 271° West 433 498 34,000  Level FlightAware
12:40PM 39.5760 -83.7820 271° West 432 497 34,000  Level FlightAware
12:41PM 39.5770 -83.8850 271° West 431 496 34,000  Level FlightAware
12:41PM 39.5780 -83.9770 271° West 430 495 34,000  Level FlightAware
12:42PM 39.5790 -84.0820 271° West 428 493 34,000  Level FlightAware
12:43PM 39.5790 -84.1870 270° West 428 493 34,000  Level FlightAware
12:43PM 39.5790 -84.2740 270° West 428 493 34,000  Level FlightAware
12:44PM 39.5790 -84.3610 270° West 428 493 34,000  Level FlightAware
12:45PM 39.5790 -84.4710 270° West 428 493 34,000  Level FlightAware
12:46PM 39.5840 -84.6510 272° West 439 505 34,000  Level FlightAware
12:46PM 39.5850 -84.7830 271° West 441 507 34,000  Level FlightAware
12:47PM 39.5740 -84.9140 264° West 443 510 34,000  Level FlightAware
12:48PM 39.5570 -85.0110 257° West 443 510 34,000  Level FlightAware
12:49PM 39.5380 -85.1270 258° West 442 509 34,000  Level FlightAware
12:49PM 39.5180 -85.2420 257° West 441 507 34,000  Level FlightAware
12:50PM 39.4950 -85.3850 258° West 441 507 34,000  Level FlightAware
12:51PM 39.4740 -85.4850 255° West 442 509 34,000  Level FlightAware
12:52PM 39.4510 -85.5990 255° West 440 506 34,000  Level FlightAware
12:52PM 39.4300 -85.7030 255° West 441 507 34,000  Level FlightAware
12:53PM 39.4090 -85.8130 256° West 443 510 34,000  Level FlightAware
12:54PM 39.3890 -85.9180 256° West 442 509 34,000  Level FlightAware
12:54PM 39.3700 -86.0200 256° West 443 510 34,000  Level FlightAware
12:55PM 39.3560 -86.1340 261° West 447 514 34,000  Level FlightAware
12:56PM 39.3580 -86.2430 271° West 448 516 34,000  Level FlightAware
12:57PM 39.3590 -86.3660 271° West 448 516 34,000  Level FlightAware
12:57PM 39.3600 -86.5150 271° West 447 514 34,000  Level FlightAware
12:58PM 39.3610 -86.6220 271° West 445 512 34,000  Level FlightAware
12:59PM 39.3620 -86.7370 271° West 442 509 34,000  Level FlightAware
01:00PM 39.3620 -86.8420 270° West 439 505 34,000  Level FlightAware
01:00PM 39.3630 -86.9590 271° West 437 503 34,000  Level FlightAware
01:01PM 39.3630 -87.0660 270° West 437 503 34,000  Level FlightAware
01:02PM 39.3640 -87.1810 271° West 437 503 34,000  Level FlightAware
01:02PM 39.3870 -87.2810 287° West 438 504 34,000  Level FlightAware
01:03PM 39.4640 -87.3780 316° Northwest 445 512 34,000  Level FlightAware
01:04PM 39.5510 -87.4360 333° Northwest 444 511 34,000  Level FlightAware
01:05PM 39.6250 -87.4800 335° Northwest 445 512 34,000  Level FlightAware
01:05PM 39.6960 -87.5220 336° Northwest 447 514 34,000  Level FlightAware
01:06PM 39.7630 -87.5630 335° Northwest 449 517 34,000 60 Level FlightAware
01:07PM 39.8880 -87.6350 336° Northwest 451 519 34,100  Climbing FlightAware
01:08PM 39.9170 -87.6480 341° North 452 520 34,000 -120 Descending FlightAware
01:08PM 40.0600 -87.7090 342° North 457 526 34,000  Level FlightAware
01:09PM 40.1370 -87.7450 340° North 455 524 34,000 60 Level FlightAware
01:10PM 40.2080 -87.8070 326° Northwest 447 514 34,100 60 Climbing FlightAware
01:11PM 40.2770 -87.8770 322° Northwest 444 511 34,100 -120 Level FlightAware
01:11PM 40.3340 -87.9390 320° Northwest 439 505 34,000 -120 Descending FlightAware
01:12PM 40.3850 -88.0490 301° West 422 486 34,000  Level FlightAware
01:13PM 40.3880 -88.1520 272° West 414 476 34,000  Level FlightAware
01:13PM 40.3780 -88.2600 263° West 411 473 34,000 180 Level FlightAware
01:14PM 40.3700 -88.3460 263° West 414 476 34,300 660 Climbing FlightAware
01:15PM 40.3590 -88.4690 263° West 409 471 35,000 840 Climbing FlightAware
01:15PM 40.3500 -88.5660 263° West 405 466 35,600 720 Climbing FlightAware
01:16PM 40.3410 -88.6590 263° West 404 465 36,000 240 Climbing FlightAware
01:17PM 40.3300 -88.7760 263° West 394 453 36,000  Level FlightAware
01:18PM 40.3210 -88.8680 263° West 393 452 36,000  Level FlightAware
01:18PM 40.3130 -88.9540 263° West 394 453 36,000  Level FlightAware
01:19PM 40.3020 -89.0690 263° West 395 455 36,000  Level FlightAware
01:20PM 40.2920 -89.1650 262° West 399 459 36,000  Level FlightAware
01:20PM 40.2830 -89.2530 262° West 403 464 36,000  Level FlightAware
01:21PM 40.2730 -89.3610 263° West 406 467 36,000  Level FlightAware
01:22PM 40.2610 -89.4760 262° West 411 473 36,000 60 Level FlightAware
01:22PM 40.2520 -89.5660 263° West 412 474 36,100 60 Climbing FlightAware
01:23PM 40.2400 -89.6810 262° West 413 475 36,100 -120 Level FlightAware
01:24PM 40.2330 -89.7890 265° West 418 481 36,000 -120 Descending FlightAware
01:25PM 40.2300 -89.8890 268° West 416 479 36,000 60 Level FlightAware
01:25PM 40.2260 -90.0030 267° West 414 476 36,100  Climbing FlightAware
01:26PM 40.2230 -90.0810 267° West 413 475 36,000 -120 Descending FlightAware
01:27PM 40.2180 -90.2000 267° West 410 472 36,000  Level FlightAware
01:27PM 40.2140 -90.3080 267° West 410 472 36,000  Level FlightAware
01:28PM 40.2100 -90.4090 267° West 410 472 36,000  Level FlightAware
01:29PM 40.2080 -90.4900 268° West 411 473 36,000  Level FlightAware
01:29PM 40.2040 -90.5900 267° West 411 473 36,000  Level FlightAware
01:30PM 40.2030 -90.7180 269° West 408 470 36,000  Level FlightAware
01:31PM 40.2010 -90.8210 269° West 405 466 36,000  Level FlightAware
01:32PM 40.2000 -90.9250 269° West 402 463 36,000  Level FlightAware
01:32PM 40.1990 -91.0220 269° West 402 463 36,000  Level FlightAware
01:33PM 40.1980 -91.1160 269° West 405 466 36,000  Level FlightAware
01:34PM 40.1930 -91.2250 267° West 405 466 36,000  Level FlightAware
01:34PM 40.1820 -91.3120 261° West 409 471 36,000  Level FlightAware
01:35PM 40.1670 -91.4320 261° West 411 473 36,000 60 Level FlightAware
01:36PM 40.1540 -91.5340 261° West 409 471 36,100  Climbing FlightAware
01:36PM 40.1400 -91.6390 260° West 407 468 36,000 -120 Descending FlightAware
01:37PM 40.1290 -91.7240 260° West 405 466 36,000  Level FlightAware
01:38PM 40.1130 -91.8500 261° West 407 468 36,000  Level FlightAware
01:39PM 40.1010 -91.9410 260° West 406 467 36,000  Level FlightAware
01:39PM 40.0900 -92.0250 260° West 407 468 36,000  Level FlightAware
01:40PM 40.0730 -92.1560 260° West 411 473 36,000  Level FlightAware
01:41PM 40.0580 -92.2680 260° West 411 473 36,000  Level FlightAware
01:41PM 40.0470 -92.3510 260° West 411 473 36,000  Level FlightAware
01:42PM 40.0310 -92.4700 260° West 415 478 36,000  Level FlightAware
01:43PM 40.0140 -92.5930 260° West 416 479 36,000  Level FlightAware
01:44PM 39.9990 -92.7070 260° West 415 478 36,000  Level FlightAware
01:44PM 39.9850 -92.8090 260° West 416 479 36,000  Level FlightAware
01:45PM 39.9710 -92.9050 259° West 417 480 36,000  Level FlightAware
01:46PM 39.9560 -93.0160 260° West 417 480 36,000  Level FlightAware
01:46PM 39.9420 -93.1140 259° West 418 481 36,000  Level FlightAware
01:47PM 39.9260 -93.2250 259° West 420 483 36,000  Level FlightAware
01:48PM 39.9120 -93.3240 260° West 420 483 36,000  Level FlightAware
01:49PM 39.8980 -93.4250 260° West 419 482 36,000  Level FlightAware
01:49PM 39.8810 -93.5370 259° West 416 479 36,000  Level FlightAware
01:50PM 39.8670 -93.6330 259° West 414 476 36,000  Level FlightAware
01:51PM 39.8530 -93.7340 260° West 413 475 36,000  Level FlightAware
01:51PM 39.8370 -93.8400 259° West 413 475 36,000  Level FlightAware
01:52PM 39.8230 -93.9370 259° West 415 478 36,000  Level FlightAware
01:53PM 39.8060 -94.0500 259° West 418 481 36,000  Level FlightAware
01:53PM 39.7910 -94.1450 258° West 419 482 36,000 60 Level FlightAware
01:54PM 39.7760 -94.2480 259° West 417 480 36,100  Climbing FlightAware
01:55PM 39.7600 -94.3550 259° West 415 478 36,000 -120 Descending FlightAware
01:56PM 39.7450 -94.4520 259° West 415 478 36,000  Level FlightAware
01:56PM 39.7280 -94.5620 259° West 417 480 36,000  Level FlightAware
01:57PM 39.7130 -94.6590 259° West 418 481 36,000  Level FlightAware
01:58PM 39.6950 -94.7720 258° West 420 483 36,000 60 Level FlightAware
01:58PM 39.6800 -94.8720 259° West 418 481 36,100 60 Climbing FlightAware
01:59PM 39.6650 -94.9670 258° West 415 478 36,100 -120 Level FlightAware
02:00PM 39.6470 -95.0760 258° West 411 473 36,000 -120 Descending FlightAware
02:00PM 39.6350 -95.1520 258° West 409 471 36,000  Level FlightAware
02:01PM 39.6150 -95.2780 258° West 406 467 36,000  Level FlightAware
02:02PM 39.5990 -95.3750 258° West 406 467 36,000  Level FlightAware
02:03PM 39.5840 -95.4700 258° West 407 468 36,000  Level FlightAware
02:03PM 39.5660 -95.5770 258° West 408 470 36,000  Level FlightAware
02:04PM 39.5510 -95.6670 258° West 408 470 36,000  Level FlightAware
02:05PM 39.5360 -95.7630 259° West 409 471 36,000 60 Level FlightAware
02:05PM 39.5170 -95.8770 258° West 408 470 36,100  Climbing FlightAware
02:06PM 39.5040 -95.9500 257° West 408 470 36,000 -120 Descending FlightAware
02:07PM 39.4850 -96.0640 258° West 408 470 36,000  Level FlightAware
02:07PM 39.4690 -96.1550 257° West 408 470 36,000 60 Level FlightAware
02:08PM 39.4690 -96.1550 257° West 403 464 36,100  Climbing FlightAware
02:09PM 39.4360 -96.3540 258° West 396 456 36,000 -120 Descending FlightAware
02:10PM 39.4200 -96.4450 257° West 396 456 36,000  Level FlightAware
02:10PM 39.4230 -96.4250 79° East 396 456 36,000  Level FlightAware
02:11PM 39.3840 -96.6530 258° West 399 459 36,000  Level FlightAware
02:12PM 39.3700 -96.7340 257° West 399 459 36,000  Level FlightAware
02:13PM 39.3380 -96.9150 257° West 398 458 36,100 60 Climbing FlightAware
02:14PM 39.3240 -96.9940 257° West 398 458 36,100  Level FlightAware
02:14PM 39.3100 -97.0730 257° West 398 458 36,100  Level FlightAware
02:15PM 39.2960 -97.1520 257° West 398 458 36,100  Level FlightAware
02:16PM 39.2820 -97.2300 257° West 398 458 36,100  Level FlightAware
02:16PM 39.2640 -97.3290 257° West 398 458 36,100  Level FlightAware
02:17PM 39.2500 -97.4080 257° West 398 458 36,100 -120 Level FlightAware
02:18PM 39.2239 -97.5564 257° West 393 452 36,000 -120 Descending Kansas City Center
02:19PM 39.1986 -97.6881 256° West 397 457 36,000  Level Kansas City Center
02:20PM 39.1708 -97.8439 257° West 397 457 36,000  Level Kansas City Center
02:21PM 39.1419 -97.9889 256° West 399 459 36,000  Level Kansas City Center
02:22PM 39.1158 -98.1322 257° West 404 465 36,000  Level Kansas City Center
02:23PM 39.0894 -98.2697 256° West 402 463 36,100  Climbing Kansas City Center
02:24PM 39.0644 -98.4086 257° West 400 460 36,000 -60 Descending Kansas City Center
02:25PM 39.0378 -98.5464 256° West 399 459 36,000  Level Kansas City Center
02:26PM 39.0106 -98.6878 256° West 406 467 36,000  Level Kansas City Center
02:27PM 38.9828 -98.8294 256° West 410 472 36,000  Level Kansas City Center
02:28PM 38.9581 -98.9489 255° West 407 468 36,000  Level Denver Center
02:29PM 38.9272 -99.1083 256° West 409 471 36,000  Level Denver Center
02:30PM 38.8997 -99.2461 256° West 414 476 36,000  Level Denver Center
02:31PM 38.8672 -99.4083 256° West 420 483 36,000  Level Denver Center
02:32PM 38.8392 -99.5511 256° West 429 494 36,000  Level Denver Center
02:33PM 38.8003 -99.7400 255° West 431 496 36,000  Level Denver Center
02:34PM 38.7711 -99.8836 255° West 433 498 36,000  Level Denver Center
02:35PM 38.7378 -100.0500 256° West 433 498 36,000  Level Denver Center
02:36PM 38.7075 -100.1922 255° West 435 501 36,000  Level Denver Center
02:37PM 38.6725 -100.3600 255° West 437 503 36,000  Level Denver Center
02:38PM 38.6417 -100.5039 255° West 438 504 36,000  Level Denver Center
02:39PM 38.6108 -100.6461 255° West 437 503 36,000  Level Denver Center
02:40PM 38.5756 -100.8142 255° West 438 504 36,000  Level Denver Center
02:41PM 38.5453 -100.9569 255° West 436 502 36,000  Level Denver Center
02:47PM 38.3575 -101.8130 255° West 439 505 36,000  Level FlightAware ADS-B
02:47PM 38.3406 -101.8880 254° West 438 504 36,000  Level FlightAware ADS-B
02:48PM 38.3238 -101.9620 254° West 438 504 36,000  Level FlightAware ADS-B
02:48PM 38.3063 -102.0400 254° West 437 503 36,000  Level FlightAware ADS-B
02:49PM 38.2887 -102.1170 254° West 438 504 36,000  Level FlightAware ADS-B
02:49PM 38.2717 -102.1920 254° West 438 504 36,000  Level FlightAware ADS-B
02:50PM 38.2547 -102.2670 254° West 437 503 36,000  Level FlightAware ADS-B
02:50PM 38.2377 -102.3400 254° West 437 503 36,000  Level FlightAware ADS-B
02:51PM 38.2173 -102.4300 254° West 438 504 36,000  Level FlightAware ADS-B
02:51PM 38.2002 -102.5040 254° West 439 505 36,000  Level FlightAware ADS-B
02:52PM 38.1828 -102.5790 254° West 440 506 36,000  Level FlightAware ADS-B
02:53PM 38.1585 -102.6830 253° West 441 507 36,000  Level FlightAware ADS-B
02:53PM 38.1409 -102.7590 254° West 442 509 36,000  Level FlightAware ADS-B
02:54PM 38.1234 -102.8340 254° West 442 509 36,000  Level FlightAware ADS-B
02:54PM 38.1058 -102.9090 253° West 441 507 36,000 60 Level FlightAware ADS-B
02:55PM 38.0880 -102.9850 253° West 440 506 36,100  Climbing FlightAware ADS-B
02:55PM 38.0701 -103.0610 253° West 439 505 36,000 -120 Descending FlightAware ADS-B
02:56PM 38.0520 -103.1370 253° West 438 504 36,000  Level FlightAware ADS-B
02:56PM 38.0332 -103.2160 253° West 438 504 36,000  Level FlightAware ADS-B
02:57PM 38.0153 -103.2910 253° West 441 507 36,000  Level FlightAware ADS-B
02:57PM 37.9972 -103.3660 253° West 442 509 36,000  Level FlightAware ADS-B
02:58PM 37.9792 -103.4410 253° West 444 511 36,000  Level FlightAware ADS-B
02:58PM 37.9613 -103.5150 253° West 444 511 36,000 60 Level FlightAware ADS-B
02:59PM 37.9431 -103.5900 253° West 444 511 36,100  Climbing FlightAware ADS-B
02:59PM 37.9250 -103.6650 253° West 445 512 36,000 -120 Descending FlightAware ADS-B
03:00PM 37.9066 -103.7410 253° West 447 514 36,000  Level FlightAware ADS-B
03:00PM 37.8884 -103.8160 253° West 449 517 36,000  Level FlightAware ADS-B
03:01PM 37.8698 -103.8920 253° West 451 519 36,000  Level FlightAware ADS-B
03:01PM 37.8512 -103.9680 253° West 452 520 36,000  Level FlightAware ADS-B
03:02PM 37.8323 -104.0440 253° West 453 521 36,000  Level FlightAware ADS-B
03:02PM 37.8125 -104.1240 253° West 453 521 36,000  Level FlightAware ADS-B
03:03PM 37.7936 -104.2010 253° West 453 521 36,000  Level FlightAware ADS-B
03:03PM 37.7717 -104.2890 253° West 454 522 36,000  Level FlightAware ADS-B
03:04PM 37.7466 -104.3890 252° West 455 524 36,000  Level FlightAware ADS-B
03:05PM 37.7218 -104.4880 252° West 457 526 36,000  Level FlightAware ADS-B
03:05PM 37.7022 -104.5660 252° West 461 531 36,000  Level FlightAware ADS-B
03:06PM 37.6535 -104.7590 252° West 460 529 36,100  Climbing FlightAware ADS-B
03:07PM 37.6321 -104.8440 252° West 460 529 36,000 -120 Descending FlightAware ADS-B
03:08PM 37.6023 -104.9600 252° West 460 529 36,000  Level FlightAware ADS-B
03:08PM 37.5814 -105.0420 252° West 461 531 36,000  Level FlightAware ADS-B
03:09PM 37.5580 -105.1330 252° West 461 531 36,000  Level FlightAware ADS-B
03:09PM 37.5370 -105.2140 252° West 460 529 36,000  Level FlightAware ADS-B
03:10PM 37.5066 -105.3310 252° West 459 528 36,000  Level FlightAware ADS-B
03:11PM 37.4781 -105.4410 252° West 459 528 36,000  Level FlightAware ADS-B
03:11PM 37.4582 -105.5170 252° West 459 528 36,000  Level FlightAware ADS-B
03:12PM 37.4275 -105.6319 252° West 458 527 36,000  Level Denver Center
03:13PM 37.3878 -105.7778 251° West 461 531 36,000  Level Denver Center
03:14PM 37.3492 -105.9256 252° West 465 535 36,000  Level Denver Center
03:15PM 37.3033 -106.0986 252° West 467 537 36,100  Climbing Denver Center
03:16PM 37.2628 -106.2461 251° West 467 537 36,000 -60 Descending Denver Center
03:17PM 37.2169 -106.4175 251° West 465 535 36,000  Level Denver Center
03:18PM 37.1775 -106.5639 251° West 464 534 36,000  Level Denver Center
03:19PM 37.1294 -106.7361 251° West 467 537 36,000  Level Denver Center
03:20PM 37.0894 -106.8842 251° West 470 541 36,000  Level Denver Center
03:21PM 37.0497 -107.0306 251° West 465 535 36,000  Level Denver Center
03:22PM 37.0147 -107.2047 256° West 463 533 36,000  Level Denver Center
03:24PM 36.9861 -107.3553 257° West 466 536 36,000  Level Denver Center
03:25PM 36.9478 -107.5581 257° West 471 542 36,100  Climbing Denver Center
03:26PM 36.9136 -107.7311 256° West 461 531 36,000 -60 Descending Denver Center
03:27PM 36.8844 -107.8792 256° West 459 528 36,000  Level Denver Center
03:28PM 36.8556 -108.0283 256° West 462 532 36,000  Level Denver Center
03:29PM 36.8175 -108.2253 256° West 460 529 36,000  Level Denver Center
03:30PM 36.7831 -108.4000 256° West 464 534 36,000  Level Denver Center
03:31PM 36.7564 -108.5236 255° West 464 534 36,000  Level Denver Center
03:32PM 36.7161 -108.7250 256° West 469 540 36,000  Level Denver Center
03:33PM 36.6853 -108.8772 256° West 474 545 36,000  Level Denver Center
03:34PM 36.6536 -109.0286 255° West 474 545 36,000  Level Denver Center
03:35PM 36.6175 -109.2056 256° West 475 547 36,000  Level Denver Center
03:36PM 36.5864 -109.3553 256° West 471 542 36,000  Level Denver Center
03:37PM 36.5494 -109.5308 255° West 473 544 36,000  Level Denver Center
03:38PM 36.5161 -109.6850 255° West 480 552 36,100  Climbing Denver Center
03:39PM 36.4781 -109.8631 255° West 480 552 36,100 -60 Level Denver Center
03:40PM 36.4469 -110.0136 256° West 472 543 36,000 -60 Descending Denver Center
03:41PM 36.4161 -110.1617 256° West 471 542 36,000  Level Denver Center
03:42PM 36.3756 -110.3492 255° West 470 541 36,000  Level Denver Center
03:43PM 36.3386 -110.5064 254° West 472 543 36,000  Level Denver Center
03:45PM 36.3050 -110.6650 255° West 476 548 36,000  Level Denver Center
03:46PM 36.2692 -110.8239 254° West 477 549 36,000  Level Denver Center
03:47PM 36.2325 -110.9831 254° West 480 552 36,000  Level Denver Center
03:48PM 36.1969 -111.1431 255° West 482 555 36,000  Level Denver Center
03:54PM 35.9450 -112.1210 255° West 492 566 36,000  Level FlightAware
03:54PM 35.9120 -112.2160 247° West 492 566 36,000  Level FlightAware
03:55PM 35.8710 -112.3380 248° West 488 562 36,000  Level FlightAware
03:56PM 35.8360 -112.4390 247° West 488 562 36,000  Level FlightAware
03:56PM 35.8010 -112.5420 247° West 488 562 36,000  Level FlightAware
03:57PM 35.7600 -112.6600 247° West 489 563 36,000  Level FlightAware
03:58PM 35.7250 -112.7620 247° West 491 565 36,000  Level FlightAware
03:59PM 35.6850 -112.8740 246° West 489 563 36,000  Level FlightAware
03:59PM 35.6500 -112.9760 247° West 486 559 36,000  Level FlightAware
04:00PM 35.6150 -113.0760 247° West 483 556 36,000  Level FlightAware
04:01PM 35.5740 -113.1920 247° West 483 556 36,000  Level FlightAware
04:01PM 35.5380 -113.2950 247° West 483 556 36,000  Level FlightAware
04:02PM 35.4990 -113.4040 246° West 483 556 36,000  Level FlightAware
04:03PM 35.4630 -113.5050 246° West 483 556 36,000  Level FlightAware
04:03PM 35.4230 -113.6190 247° West 482 555 36,000  Level FlightAware
04:04PM 35.3880 -113.7170 246° West 481 554 36,000  Level FlightAware
04:05PM 35.3510 -113.8190 246° West 480 552 36,000  Level FlightAware
04:06PM 35.3120 -113.9280 246° West 480 552 36,000  Level FlightAware
04:06PM 35.2760 -114.0290 246° West 478 550 36,000  Level FlightAware
04:07PM 35.2410 -114.1260 246° West 479 551 36,000  Level FlightAware
04:08PM 35.1990 -114.2400 246° West 480 552 36,000  Level FlightAware
04:08PM 35.1630 -114.3400 246° West 479 551 36,000  Level FlightAware
04:09PM 35.1240 -114.4470 246° West 478 550 36,000  Level FlightAware
04:10PM 35.0880 -114.5440 246° West 478 550 36,000  Level FlightAware
04:10PM 35.0450 -114.6600 246° West 478 550 36,000  Level FlightAware
04:11PM 35.0090 -114.7590 246° West 480 552 36,000  Level FlightAware
04:12PM 34.9720 -114.8580 246° West 481 554 36,000  Level FlightAware
04:13PM 34.9320 -114.9650 246° West 479 551 36,000  Level FlightAware
04:13PM 34.8960 -115.0610 245° Southwest 478 550 36,000  Level FlightAware
04:14PM 34.8530 -115.1770 246° West 477 549 36,000  Level FlightAware
04:15PM 34.8170 -115.2730 245° Southwest 477 549 36,000 -240 Level FlightAware
04:15PM 34.7820 -115.3680 246° West 474 545 35,700 -720 Descending FlightAware
04:16PM 34.7410 -115.4760 245° Southwest 477 549 35,000 -960 Descending FlightAware
04:17PM 34.7040 -115.5730 245° Southwest 481 554 34,400 -1,020 Descending FlightAware
04:17PM 34.6620 -115.6840 245° Southwest 484 557 33,600 -1,080 Descending FlightAware
04:18PM 34.6230 -115.7860 245° Southwest 483 556 32,900 -1,020 Descending FlightAware
04:19PM 34.5870 -115.8810 245° Southwest 480 552 32,300 -1,020 Descending FlightAware
04:20PM 34.5440 -115.9930 245° Southwest 480 552 31,500 -660 Descending FlightAware
04:20PM 34.4960 -116.1170 245° Southwest 479 551 31,200 -240 Descending FlightAware
04:21PM 34.4640 -116.2000 245° Southwest 479 551 31,200 -1,380 Level FlightAware
04:22PM 34.4140 -116.3290 245° Southwest 482 555 29,300 -1,800 Descending FlightAware
04:23PM 34.3740 -116.4320 245° Southwest 481 554 28,700 -1,200 Descending FlightAware
04:23PM 34.3320 -116.5410 245° Southwest 486 559 27,600 -1,980 Descending FlightAware
04:24PM 34.2930 -116.6390 244° Southwest 485 558 25,900 -2,640 Descending FlightAware
04:25PM 34.2550 -116.7350 244° Southwest 478 550 24,100 -2,880 Descending FlightAware
04:25PM 34.2120 -116.8430 244° Southwest 472 543 21,900 -2,940 Descending FlightAware
04:26PM 34.1740 -116.9400 245° Southwest 454 522 20,000 -2,400 Descending FlightAware
04:27PM 34.1360 -117.0380 245° Southwest 434 499 18,500 -1,500 Descending FlightAware
04:27PM 34.1030 -117.1210 244° Southwest 397 457 17,900 -1,500 Descending FlightAware
04:28PM 34.0630 -117.2090 241° Southwest 388 447 16,400 -1,920 Descending FlightAware
04:29PM 34.0470 -117.2560 248° West 367 422 15,700 -1,620 Descending FlightAware
04:29PM 34.0390 -117.3340 263° West 361 415 14,700 -1,560 Descending FlightAware
04:30PM 34.0300 -117.4270 263° West 360 414 13,500 -1,680 Descending FlightAware
04:31PM 34.0300 -117.5050 270° West 350 403 12,400 -1,500 Descending FlightAware
04:32PM 34.0290 -117.6200 269° West 348 400 11,000 -1,140 Descending FlightAware
04:32PM 34.0210 -117.6970 263° West 316 364 10,500 -900 Descending FlightAware
04:33PM 34.0160 -117.7470 263° West 304 350 10,000 -1,320 Descending FlightAware
04:33PM 34.0120 -117.7980 265° West 297 342 9,200 -1,620 Descending FlightAware
04:34PM 34.0090 -117.8210 261° West 298 343 8,800 -1,680 Descending FlightAware
04:34PM 34.0060 -117.8630 265° West 296 341 8,100 -1,440 Descending FlightAware
04:35PM 34.0010 -117.9120 263° West 288 331 7,500 -1,320 Descending FlightAware
04:35PM 33.9970 -117.9500 263° West 286 329 6,900 -1,560 Descending FlightAware
04:35PM 33.9920 -117.9980 263° West 286 329 6,100 -1,320 Descending FlightAware
04:36PM 33.9880 -118.0430 264° West 274 315 5,600 -1,140 Descending FlightAware
04:36PM 33.9840 -118.0830 263° West 268 308 5,100 -1,200 Descending FlightAware
04:37PM 33.9820 -118.1040 263° West 269 310 4,800 -1,380 Descending FlightAware
04:37PM 33.9780 -118.1480 264° West 271 312 4,100 -1,560 Descending FlightAware
04:38PM 33.9740 -118.1860 263° West 261 300 3,400 -1,560 Descending FlightAware
04:38PM 33.9720 -118.2010 261° West 252 290 3,200 -1,200 Descending FlightAware
04:38PM 33.9680 -118.2440 264° West 237 273 2,500 -840 Descending FlightAware
04:39PM 33.9630 -118.2920 263° West 221 254 2,200 -840 Descending FlightAware
04:39PM 33.9630 -118.2980 270° West 177 204 1,700 -720 Descending FlightAware
04:40PM 33.9600 -118.3210 261° West 177 204 1,700 -480 Level FlightAware
04:40PM 33.9600 -118.3230 270° West 177 204 1,400 -1,200 Descending FlightAware
04:40PM 33.9590 -118.3340 264° West 131 151 1,100 -840 Descending FlightAware
04:41PM 33.9550 -118.3720 263° West 132 152 500 -720 Descending FlightAware
04:42PM 33.9530 -118.3940 264° West 130 150 200 -420 Descending FlightAware
04:42PM 33.9510 -118.4160 264° West 129 148 100 -180 Descending FlightAware
04:50PM 33.9425 -118.4081 259° West  Level Estimated